Terminal Aerodrome Forecast
Issued by NWS Shreveport, LA

Home | Current Version | Previous Version | Text Only | Print | Product List | Glossary On
Versions: 1 2 3 4 5 6 7 8 9 10 11 12 13 14 15 16 17 18 19 20 21 22 23
000
FTUS44 KSHV 300521
TAFLFK
TAF
KLFK 300521Z 3006/0106 21007KT P6SM FEW010 OVC030
     FM300700 16012G20KT 4SM -TSRA OVC008CB
     FM300800 24008KT P6SM -TSRA SCT020 OVC030CB
      TEMPO 3008/3011 4SM -TSRA BKN025CB
     FM301100 26010KT P6SM BKN100
     FM301500 27012G20KT P6SM SKC=

USA.gov is the U.S. government's official web portal to all federal, state and local government web resources and services.